Time;durP1;ratioP1;P1;durP2;ratioP2;P2;SDS_P1;SDS_P2;PMS_P1;PMS_P2;Temp;Humidity;BMP_temperature;BMP_pressure;BME280_temperature;BME280_humidity;BME280_pressure;Samples;Min_cycle;Max_cycle;Signal;HPM_P1;HPM_P2
2023/04/22 00:00:37;;;;;;;9.68;2.88;;;;;;;;;;2053291;28;20035;-60
2023/04/22 00:01:55;;;;;;;6.72;2.20;;;;;;;;;;2059488;28;20039;-60
2023/04/22 00:03:14;;;;;;;12.63;2.58;;;;;;;;;;2058584;28;20046;-59
2023/04/22 00:04:34;;;;;;;9.65;2.83;;;;;;;;;;2055263;28;20043;-61
2023/04/22 00:05:53;;;;;;;6.15;2.35;;;;;;;;;;2052642;28;20030;-61
2023/04/22 00:07:13;;;;;;;8.23;2.80;;;;;;;;;;2051648;28;20043;-61
2023/04/22 00:08:32;;;;;;;6.07;2.28;;;;;;;;;;2047468;28;20215;-61
2023/04/22 00:09:51;;;;;;;4.35;2.28;;;;;;;;;;2054871;28;20027;-61
2023/04/22 00:11:10;;;;;;;7.07;2.95;;;;;;;;;;2050324;28;20039;-61
2023/04/22 00:12:29;;;;;;;11.60;3.40;;;;;;;;;;2053439;28;20121;-61
2023/04/22 00:13:47;;;;;;;7.95;3.05;;;;;;;;;;2051291;28;20535;-63
2023/04/22 00:15:07;;;;;;;7.53;3.88;;;;;;;;;;2050940;28;20113;-60
2023/04/22 00:16:26;;;;;;;12.13;2.63;;;;;;;;;;2051915;28;20035;-61
2023/04/22 00:17:45;;;;;;;6.20;2.95;;;;;;;;;;2052060;28;20631;-61
2023/04/22 00:19:04;;;;;;;7.28;2.85;;;;;;;;;;2054965;28;20297;-61
2023/04/22 00:20:24;;;;;;;6.70;2.65;;;;;;;;;;2049295;28;20035;-61
2023/04/22 00:21:43;;;;;;;6.53;2.55;;;;;;;;;;2053622;28;20039;-61
2023/04/22 00:23:02;;;;;;;6.25;2.97;;;;;;;;;;2052497;28;20046;-62
2023/04/22 00:24:21;;;;;;;10.07;2.72;;;;;;;;;;2053383;28;20039;-61
2023/04/22 00:25:40;;;;;;;8.95;2.67;;;;;;;;;;2053583;28;20038;-61
2023/04/22 00:26:59;;;;;;;10.27;3.42;;;;;;;;;;2053478;28;20030;-61
2023/04/22 00:28:18;;;;;;;11.02;3.63;;;;;;;;;;2054753;28;20035;-61
2023/04/22 00:29:38;;;;;;;10.25;2.78;;;;;;;;;;2051484;28;20030;-61
2023/04/22 00:30:57;;;;;;;7.07;3.00;;;;;;;;;;2051976;28;20524;-61
2023/04/22 00:32:16;;;;;;;13.95;3.45;;;;;;;;;;2052426;28;20062;-61
2023/04/22 00:33:35;;;;;;;6.82;2.70;;;;;;;;;;2053843;28;20074;-61
2023/04/22 00:34:56;;;;;;;15.40;3.10;;;;;;;;;;2052022;28;20022;-61
2023/04/22 00:36:15;;;;;;;4.85;3.13;;;;;;;;;;2053393;28;20463;-61
2023/04/22 00:37:33;;;;;;;6.57;3.03;;;;;;;;;;2054356;28;20408;-61
2023/04/22 00:38:52;;;;;;;10.38;3.20;;;;;;;;;;2051973;28;20070;-61
2023/04/22 00:40:11;;;;;;;6.35;3.00;;;;;;;;;;2056284;28;20031;-63
2023/04/22 00:41:31;;;;;;;12.05;3.38;;;;;;;;;;2052498;28;20118;-61
2023/04/22 00:42:50;;;;;;;10.05;2.80;;;;;;;;;;2055785;28;20039;-61
2023/04/22 00:44:10;;;;;;;8.32;3.03;;;;;;;;;;2050503;28;20047;-60
2023/04/22 00:45:29;;;;;;;9.32;2.90;;;;;;;;;;2053905;28;20455;-61
2023/04/22 00:46:48;;;;;;;12.70;3.33;;;;;;;;;;2052100;28;20035;-62
2023/04/22 00:48:07;;;;;;;5.13;3.08;;;;;;;;;;2051904;28;20403;-62
2023/04/22 00:49:26;;;;;;;5.22;3.45;;;;;;;;;;2055500;28;20146;-61
2023/04/22 00:50:45;;;;;;;8.02;3.10;;;;;;;;;;2050402;28;20054;-62
2023/04/22 00:52:04;;;;;;;6.03;2.72;;;;;;;;;;2054406;28;20058;-61
2023/04/22 00:53:22;;;;;;;5.88;2.95;;;;;;;;;;2053531;28;20031;-62
2023/04/22 00:54:42;;;;;;;8.18;3.42;;;;;;;;;;2050983;28;20022;-62
2023/04/22 00:56:00;;;;;;;4.43;2.78;;;;;;;;;;2055336;28;20026;-62
2023/04/22 00:57:19;;;;;;;3.70;2.90;;;;;;;;;;2055193;28;20035;-62
2023/04/22 00:58:39;;;;;;;5.53;3.22;;;;;;;;;;2054306;28;20046;-62
2023/04/22 00:59:58;;;;;;;8.43;3.03;;;;;;;;;;2050142;28;20388;-61
2023/04/22 01:01:17;;;;;;;6.00;2.78;;;;;;;;;;2051485;28;20035;-62
2023/04/22 01:02:39;;;;;;;4.72;2.85;;;;;;;;;;2053123;28;20070;-62
2023/04/22 01:03:59;;;;;;;8.07;2.95;;;;;;;;;;2051134;28;20074;-62
2023/04/22 01:05:19;;;;;;;9.02;2.65;;;;;;;;;;2052709;28;20023;-62
2023/04/22 01:06:40;;;;;;;5.07;2.50;;;;;;;;;;2052189;28;20059;-62
2023/04/22 01:07:59;;;;;;;5.85;2.78;;;;;;;;;;2053982;28;20039;-63
2023/04/22 01:09:19;;;;;;;10.18;3.28;;;;;;;;;;2052072;28;20043;-63
2023/04/22 01:10:40;;;;;;;5.35;2.83;;;;;;;;;;2054884;28;20027;-63
2023/04/22 01:12:00;;;;;;;7.70;2.80;;;;;;;;;;2055370;28;20435;-62
2023/04/22 01:13:20;;;;;;;7.18;2.42;;;;;;;;;;2050613;28;20043;-63
2023/04/22 01:14:39;;;;;;;6.50;3.10;;;;;;;;;;2055298;28;20023;-61
2023/04/22 01:15:59;;;;;;;10.52;2.45;;;;;;;;;;2051442;28;20388;-62
2023/04/22 01:17:18;;;;;;;4.55;2.53;;;;;;;;;;2055666;28;20031;-62
2023/04/22 01:18:37;;;;;;;10.32;3.25;;;;;;;;;;2052666;28;20146;-63
2023/04/22 01:19:57;;;;;;;6.10;2.58;;;;;;;;;;2053496;28;20105;-62
2023/04/22 01:21:18;;;;;;;11.38;2.72;;;;;;;;;;2052953;28;20411;-62
2023/04/22 01:22:40;;;;;;;2.90;2.25;;;;;;;;;;2053547;28;20035;-62
2023/04/22 01:23:59;;;;;;;6.30;2.60;;;;;;;;;;2051803;28;20585;-61
2023/04/22 01:25:18;;;;;;;6.70;3.00;;;;;;;;;;2049524;28;20492;-61
2023/04/22 01:26:38;;;;;;;8.70;3.20;;;;;;;;;;2054062;28;20034;-61
2023/04/22 01:27:57;;;;;;;8.13;2.95;;;;;;;;;;2049783;28;20035;-61
2023/04/22 01:29:16;;;;;;;5.53;2.60;;;;;;;;;;2050557;28;20054;-62
2023/04/22 01:30:35;;;;;;;5.45;2.70;;;;;;;;;;2050383;28;20027;-61
2023/04/22 01:31:54;;;;;;;5.22;3.17;;;;;;;;;;2053356;28;20492;-61
2023/04/22 01:33:14;;;;;;;8.15;3.47;;;;;;;;;;2055867;28;20031;-61
2023/04/22 01:34:33;;;;;;;6.45;3.70;;;;;;;;;;2050620;28;20030;-62
2023/04/22 01:35:52;;;;;;;5.05;3.63;;;;;;;;;;2054678;28;20383;-61
2023/04/22 01:37:11;;;;;;;6.15;3.08;;;;;;;;;;2050512;28;20047;-61
2023/04/22 01:38:32;;;;;;;8.18;3.28;;;;;;;;;;2052577;28;20035;-62
2023/04/22 01:39:51;;;;;;;7.65;3.45;;;;;;;;;;2054354;28;20039;-61
2023/04/22 01:41:12;;;;;;;9.05;2.85;;;;;;;;;;2052802;28;23949;-62
2023/04/22 01:42:31;;;;;;;5.72;2.95;;;;;;;;;;2052746;28;20627;-62
2023/04/22 01:43:55;;;;;;;7.43;2.95;;;;;;;;;;2044900;28;20476;-61
2023/04/22 01:45:16;;;;;;;5.25;2.78;;;;;;;;;;2052918;28;20030;-61
2023/04/22 01:46:35;;;;;;;4.43;2.95;;;;;;;;;;2053172;28;20035;-61
2023/04/22 01:47:54;;;;;;;3.35;2.63;;;;;;;;;;2051168;28;20485;-62
2023/04/22 01:49:14;;;;;;;4.32;2.40;;;;;;;;;;2053000;28;20424;-61
2023/04/22 01:50:33;;;;;;;5.85;2.90;;;;;;;;;;2051634;28;20051;-61
2023/04/22 01:51:52;;;;;;;4.18;2.33;;;;;;;;;;2055651;28;20031;-61
2023/04/22 01:53:11;;;;;;;9.07;2.28;;;;;;;;;;2051009;28;20063;-62
2023/04/22 01:54:31;;;;;;;8.18;2.53;;;;;;;;;;2054571;28;20393;-62
2023/04/22 01:55:51;;;;;;;7.18;2.63;;;;;;;;;;2048360;28;20038;-61
2023/04/22 01:57:12;;;;;;;5.93;2.78;;;;;;;;;;2053230;28;20484;-62
2023/04/22 01:58:32;;;;;;;3.65;2.33;;;;;;;;;;2053189;28;20042;-62
2023/04/22 01:59:51;;;;;;;4.25;2.17;;;;;;;;;;2049422;28;20034;-61
2023/04/22 02:01:10;;;;;;;9.70;2.65;;;;;;;;;;2050441;28;20042;-61
2023/04/22 02:02:29;;;;;;;5.28;1.80;;;;;;;;;;2047863;28;21251;-61
2023/04/22 02:03:48;;;;;;;6.63;2.25;;;;;;;;;;2052736;28;20039;-62
2023/04/22 02:05:07;;;;;;;7.25;2.17;;;;;;;;;;2051161;28;20035;-61
2023/04/22 02:06:26;;;;;;;5.45;2.78;;;;;;;;;;2052922;28;20031;-61
2023/04/22 02:07:45;;;;;;;5.30;3.00;;;;;;;;;;2053705;28;20067;-61
2023/04/22 02:09:05;;;;;;;6.95;2.60;;;;;;;;;;2051362;28;20483;-63
2023/04/22 02:10:24;;;;;;;3.95;2.10;;;;;;;;;;2053161;28;20508;-62
2023/04/22 02:11:43;;;;;;;4.45;2.38;;;;;;;;;;2050597;28;20129;-61
2023/04/22 02:13:02;;;;;;;8.13;2.60;;;;;;;;;;2054166;28;20034;-62
2023/04/22 02:14:21;;;;;;;4.85;2.30;;;;;;;;;;2050909;28;20480;-61
2023/04/22 02:15:40;;;;;;;6.95;2.25;;;;;;;;;;2052019;28;20083;-61
2023/04/22 02:17:01;;;;;;;6.13;2.95;;;;;;;;;;2051340;28;20034;-61
2023/04/22 02:18:20;;;;;;;5.55;2.42;;;;;;;;;;2049445;28;20034;-61
2023/04/22 02:19:39;;;;;;;5.07;2.40;;;;;;;;;;2054601;28;20042;-61
2023/04/22 02:20:58;;;;;;;5.40;2.40;;;;;;;;;;2048298;28;20113;-61
2023/04/22 02:22:17;;;;;;;4.88;2.17;;;;;;;;;;2051213;28;20125;-61
2023/04/22 02:23:36;;;;;;;4.20;2.50;;;;;;;;;;2049612;28;20038;-61
2023/04/22 02:24:55;;;;;;;7.13;2.00;;;;;;;;;;2049521;28;20023;-61
2023/04/22 02:26:15;;;;;;;7.53;2.50;;;;;;;;;;2053302;28;20034;-61
2023/04/22 02:27:34;;;;;;;7.45;2.40;;;;;;;;;;2049809;28;20039;-61
2023/04/22 02:28:53;;;;;;;4.78;2.53;;;;;;;;;;2053453;28;20520;-61
2023/04/22 02:30:12;;;;;;;9.38;2.50;;;;;;;;;;2050630;28;20493;-61
2023/04/22 02:31:31;;;;;;;2.25;2.05;;;;;;;;;;2054541;28;20053;-61
2023/04/22 02:32:50;;;;;;;4.70;2.08;;;;;;;;;;2052200;28;20031;-61
2023/04/22 02:34:09;;;;;;;5.00;2.60;;;;;;;;;;2055001;28;20035;-62
2023/04/22 02:35:28;;;;;;;7.32;2.65;;;;;;;;;;2052180;28;20546;-62
2023/04/22 02:36:47;;;;;;;12.52;2.58;;;;;;;;;;2051792;28;20047;-60
2023/04/22 02:38:06;;;;;;;3.90;2.53;;;;;;;;;;2055505;28;20125;-61
2023/04/22 02:39:24;;;;;;;5.90;2.40;;;;;;;;;;2048695;28;20050;-61
2023/04/22 02:40:44;;;;;;;6.38;2.13;;;;;;;;;;2051328;28;20035;-61
2023/04/22 02:42:02;;;;;;;4.03;2.58;;;;;;;;;;2047741;28;20091;-61
2023/04/22 02:43:21;;;;;;;7.25;2.35;;;;;;;;;;2051566;28;20039;-61
2023/04/22 02:44:40;;;;;;;6.57;2.70;;;;;;;;;;2049873;28;20035;-61
2023/04/22 02:45:59;;;;;;;3.78;2.40;;;;;;;;;;2047851;28;20118;-61
2023/04/22 02:47:19;;;;;;;5.03;2.55;;;;;;;;;;2053341;28;20030;-61
2023/04/22 02:48:38;;;;;;;7.32;2.55;;;;;;;;;;2050493;28;20039;-60
2023/04/22 02:49:57;;;;;;;5.43;2.60;;;;;;;;;;2053074;28;20023;-61
2023/04/22 02:51:16;;;;;;;6.38;2.53;;;;;;;;;;2049205;28;20035;-61
2023/04/22 02:52:35;;;;;;;4.90;2.00;;;;;;;;;;2050804;28;20079;-61
2023/04/22 02:53:54;;;;;;;3.15;2.45;;;;;;;;;;2047642;28;20043;-61
2023/04/22 02:55:13;;;;;;;3.55;2.45;;;;;;;;;;2050309;28;20022;-62
2023/04/22 02:56:32;;;;;;;4.30;2.20;;;;;;;;;;2052195;28;20055;-61
2023/04/22 02:57:51;;;;;;;4.82;2.15;;;;;;;;;;2050406;28;20410;-61
2023/04/22 02:59:10;;;;;;;4.00;2.20;;;;;;;;;;2048979;28;20133;-61
2023/04/22 03:00:29;;;;;;;6.18;2.15;;;;;;;;;;2046554;28;20496;-61
2023/04/22 03:01:47;;;;;;;4.80;2.30;;;;;;;;;;2053042;28;20027;-61
2023/04/22 03:03:06;;;;;;;6.40;3.25;;;;;;;;;;2049160;28;20043;-61
2023/04/22 03:04:26;;;;;;;6.57;2.70;;;;;;;;;;2050807;28;20070;-61
2023/04/22 03:05:44;;;;;;;3.60;2.15;;;;;;;;;;2048773;28;20047;-61
2023/04/22 03:07:03;;;;;;;3.22;2.10;;;;;;;;;;2050929;28;20400;-62
2023/04/22 03:08:23;;;;;;;7.68;2.38;;;;;;;;;;2053294;28;20046;-62
2023/04/22 03:09:42;;;;;;;8.52;2.72;;;;;;;;;;2046871;28;20035;-61
2023/04/22 03:11:01;;;;;;;4.20;2.72;;;;;;;;;;2051956;28;20741;-62
2023/04/22 03:12:20;;;;;;;3.45;2.67;;;;;;;;;;2050412;28;20817;-62
2023/04/22 03:13:39;;;;;;;6.75;2.78;;;;;;;;;;2049260;28;20019;-62
2023/04/22 03:14:58;;;;;;;6.68;2.60;;;;;;;;;;2050034;28;20377;-61
2023/04/22 03:16:17;;;;;;;9.43;2.65;;;;;;;;;;2047296;28;20428;-62
2023/04/22 03:17:36;;;;;;;4.10;2.53;;;;;;;;;;2054553;28;20035;-61
2023/04/22 03:18:55;;;;;;;6.90;2.63;;;;;;;;;;2050353;28;20031;-62
2023/04/22 03:20:14;;;;;;;4.68;2.60;;;;;;;;;;2054749;28;20126;-61
2023/04/22 03:21:33;;;;;;;5.78;2.55;;;;;;;;;;2046286;28;20540;-62
2023/04/22 03:22:52;;;;;;;2.78;2.42;;;;;;;;;;2051560;28;20046;-62
2023/04/22 03:24:11;;;;;;;6.57;2.53;;;;;;;;;;2048050;28;20035;-62
2023/04/22 03:25:30;;;;;;;5.78;2.60;;;;;;;;;;2049420;28;20043;-61
2023/04/22 03:26:49;;;;;;;5.63;2.72;;;;;;;;;;2051139;28;20405;-62
2023/04/22 03:28:08;;;;;;;2.67;2.38;;;;;;;;;;2049672;28;20031;-61
2023/04/22 03:29:27;;;;;;;3.42;2.20;;;;;;;;;;2051974;28;20055;-62
2023/04/22 03:30:47;;;;;;;2.33;2.13;;;;;;;;;;2047947;28;20388;-61
2023/04/22 03:32:06;;;;;;;5.60;2.60;;;;;;;;;;2053555;28;20031;-61
2023/04/22 03:33:26;;;;;;;3.30;2.60;;;;;;;;;;2050903;28;20473;-60
2023/04/22 03:34:45;;;;;;;4.60;2.17;;;;;;;;;;2051846;28;20694;-61
2023/04/22 03:36:04;;;;;;;6.63;2.80;;;;;;;;;;2060010;28;20038;-61
2023/04/22 03:37:23;;;;;;;2.45;2.20;;;;;;;;;;2052950;28;20023;-62
2023/04/22 03:38:42;;;;;;;4.53;2.00;;;;;;;;;;2055218;28;20047;-61
2023/04/22 03:40:01;;;;;;;5.28;1.88;;;;;;;;;;2048136;28;20039;-62
2023/04/22 03:41:20;;;;;;;2.85;2.30;;;;;;;;;;2054648;28;20509;-61
2023/04/22 03:42:39;;;;;;;5.93;2.33;;;;;;;;;;2047880;28;20113;-61
2023/04/22 03:43:58;;;;;;;4.22;2.38;;;;;;;;;;2051867;28;20113;-62
2023/04/22 03:45:17;;;;;;;9.77;2.47;;;;;;;;;;2049543;28;20708;-61
2023/04/22 03:46:36;;;;;;;9.93;2.42;;;;;;;;;;2052709;28;20467;-60
2023/04/22 03:47:55;;;;;;;2.58;2.15;;;;;;;;;;2053345;28;20054;-62
2023/04/22 03:49:14;;;;;;;2.47;2.38;;;;;;;;;;2050597;28;20023;-61
2023/04/22 03:50:33;;;;;;;5.75;2.35;;;;;;;;;;2050586;28;20047;-61
2023/04/22 03:51:52;;;;;;;3.15;2.20;;;;;;;;;;2050019;28;20031;-61
2023/04/22 03:53:11;;;;;;;2.78;2.25;;;;;;;;;;2050381;28;20034;-61
2023/04/22 03:54:30;;;;;;;3.60;2.30;;;;;;;;;;2049967;28;20036;-62
2023/04/22 03:55:49;;;;;;;7.05;2.60;;;;;;;;;;2048443;28;20555;-61
2023/04/22 03:57:08;;;;;;;2.72;2.10;;;;;;;;;;2050427;28;20545;-62
2023/04/22 03:58:27;;;;;;;3.90;2.15;;;;;;;;;;2049203;28;20121;-61
2023/04/22 03:59:46;;;;;;;5.05;2.50;;;;;;;;;;2046467;28;20042;-61
2023/04/22 04:01:05;;;;;;;2.70;2.17;;;;;;;;;;2047565;28;20043;-62
2023/04/22 04:02:24;;;;;;;4.93;2.03;;;;;;;;;;2052375;28;20035;-61
2023/04/22 04:03:43;;;;;;;9.23;2.60;;;;;;;;;;2050987;28;20650;-61
2023/04/22 04:05:02;;;;;;;3.97;2.20;;;;;;;;;;2051319;28;21109;-61
2023/04/22 04:06:21;;;;;;;2.88;2.20;;;;;;;;;;2052159;28;20076;-62
2023/04/22 04:07:40;;;;;;;2.50;2.30;;;;;;;;;;2046955;28;20038;-63
2023/04/22 04:09:00;;;;;;;4.38;2.35;;;;;;;;;;2051692;28;20574;-61
2023/04/22 04:10:19;;;;;;;6.82;2.35;;;;;;;;;;2047594;28;20113;-62
2023/04/22 04:11:38;;;;;;;2.58;2.25;;;;;;;;;;2052799;28;20496;-62
2023/04/22 04:12:57;;;;;;;4.40;2.17;;;;;;;;;;2045628;28;20067;-62
2023/04/22 04:14:16;;;;;;;6.10;2.30;;;;;;;;;;2048531;28;20634;-61
2023/04/22 04:15:36;;;;;;;2.88;2.20;;;;;;;;;;2050261;28;20533;-62
2023/04/22 04:16:55;;;;;;;5.18;2.00;;;;;;;;;;2047919;28;20130;-61
2023/04/22 04:18:14;;;;;;;2.90;2.20;;;;;;;;;;2047813;28;20559;-61
2023/04/22 04:19:33;;;;;;;3.00;1.90;;;;;;;;;;2046903;28;20038;-61
2023/04/22 04:20:52;;;;;;;2.55;2.35;;;;;;;;;;2049740;28;20420;-61
2023/04/22 04:22:12;;;;;;;4.90;2.60;;;;;;;;;;2045954;28;21926;-62
2023/04/22 04:23:31;;;;;;;4.97;2.38;;;;;;;;;;2048459;28;20031;-62
2023/04/22 04:24:51;;;;;;;2.67;2.17;;;;;;;;;;2052786;28;20066;-61
2023/04/22 04:26:10;;;;;;;4.15;2.28;;;;;;;;;;2049571;28;21063;-61
2023/04/22 04:27:29;;;;;;;7.97;3.17;;;;;;;;;;2052259;28;20125;-61
2023/04/22 04:28:48;;;;;;;2.75;2.03;;;;;;;;;;2048791;28;20038;-61
2023/04/22 04:30:08;;;;;;;3.40;1.92;;;;;;;;;;2052592;28;20031;-59
2023/04/22 04:31:28;;;;;;;4.97;2.60;;;;;;;;;;2053211;28;20039;-62
2023/04/22 04:32:47;;;;;;;3.65;2.08;;;;;;;;;;2051953;28;20027;-62
2023/04/22 04:34:06;;;;;;;3.15;2.53;;;;;;;;;;2053775;28;20035;-62
2023/04/22 04:35:25;;;;;;;4.32;2.03;;;;;;;;;;2050265;28;20028;-62
2023/04/22 04:36:45;;;;;;;5.90;2.72;;;;;;;;;;2051930;28;20389;-60
2023/04/22 04:38:07;;;;;;;5.30;2.20;;;;;;;;;;2049254;28;20031;-62
2023/04/22 04:39:28;;;;;;;3.92;2.22;;;;;;;;;;2056176;28;20027;-59
2023/04/22 04:40:48;;;;;;;2.85;2.17;;;;;;;;;;2048791;28;20039;-61
2023/04/22 04:42:08;;;;;;;3.35;2.15;;;;;;;;;;2048613;28;20035;-59
2023/04/22 04:43:28;;;;;;;2.50;2.30;;;;;;;;;;2049109;28;20074;-61
2023/04/22 04:44:47;;;;;;;3.63;2.20;;;;;;;;;;2050176;28;20031;-61
2023/04/22 04:46:07;;;;;;;8.23;2.47;;;;;;;;;;2049969;28;20039;-60
2023/04/22 04:47:27;;;;;;;4.57;2.60;;;;;;;;;;2049307;28;20043;-60
2023/04/22 04:48:47;;;;;;;4.20;2.30;;;;;;;;;;2053903;28;20122;-61
2023/04/22 04:50:06;;;;;;;3.05;2.00;;;;;;;;;;2049846;28;20039;-60
2023/04/22 04:51:25;;;;;;;3.03;2.22;;;;;;;;;;2052902;28;20034;-61
2023/04/22 04:52:44;;;;;;;2.47;2.10;;;;;;;;;;2054332;28;20031;-61
2023/04/22 04:54:03;;;;;;;3.30;2.70;;;;;;;;;;2050091;28;20026;-61
2023/04/22 04:55:22;;;;;;;4.13;2.55;;;;;;;;;;2054992;28;21258;-61
2023/04/22 04:56:41;;;;;;;5.05;2.50;;;;;;;;;;2045682;28;20605;-61
2023/04/22 04:58:00;;;;;;;7.60;2.70;;;;;;;;;;2054180;28;20411;-61
2023/04/22 04:59:19;;;;;;;6.85;2.47;;;;;;;;;;2051322;28;20054;-60
2023/04/22 05:00:39;;;;;;;2.75;2.28;;;;;;;;;;2050398;28;20031;-61
2023/04/22 05:01:58;;;;;;;6.15;2.33;;;;;;;;;;2054713;28;20031;-61
2023/04/22 05:03:17;;;;;;;8.43;2.70;;;;;;;;;;2050370;28;20042;-60
2023/04/22 05:04:36;;;;;;;2.95;2.40;;;;;;;;;;2052430;28;20094;-60
2023/04/22 05:05:55;;;;;;;2.72;1.98;;;;;;;;;;2047362;28;21638;-60
2023/04/22 05:07:14;;;;;;;2.75;2.15;;;;;;;;;;2051085;28;20035;-63
2023/04/22 05:08:33;;;;;;;5.65;2.50;;;;;;;;;;2052690;28;20039;-61
2023/04/22 05:09:52;;;;;;;6.15;2.65;;;;;;;;;;2052529;28;20030;-61
2023/04/22 05:11:11;;;;;;;6.05;2.80;;;;;;;;;;2047214;28;20384;-61
2023/04/22 05:12:30;;;;;;;7.80;2.63;;;;;;;;;;2051087;28;20042;-61
2023/04/22 05:13:49;;;;;;;5.07;3.03;;;;;;;;;;2052317;28;20039;-61
2023/04/22 05:15:08;;;;;;;4.05;2.22;;;;;;;;;;2050596;28;20035;-60
2023/04/22 05:16:27;;;;;;;4.70;2.60;;;;;;;;;;2054120;28;20047;-60
2023/04/22 05:17:46;;;;;;;3.20;2.25;;;;;;;;;;2054231;28;20030;-61
2023/04/22 05:19:05;;;;;;;2.80;2.10;;;;;;;;;;2052939;28;20035;-60
2023/04/22 05:20:25;;;;;;;3.20;2.80;;;;;;;;;;2054318;28;20038;-63
2023/04/22 05:21:43;;;;;;;8.65;2.58;;;;;;;;;;2053541;28;20396;-61
2023/04/22 05:23:03;;;;;;;3.97;2.00;;;;;;;;;;2049510;28;20032;-61
2023/04/22 05:24:21;;;;;;;6.75;2.58;;;;;;;;;;2047530;28;20582;-61
2023/04/22 05:25:40;;;;;;;2.58;2.38;;;;;;;;;;2054067;28;20516;-60
2023/04/22 05:26:59;;;;;;;2.92;2.40;;;;;;;;;;2052306;28;20043;-61
2023/04/22 05:28:18;;;;;;;4.30;2.35;;;;;;;;;;2053280;28;20106;-61
2023/04/22 05:29:37;;;;;;;3.45;2.30;;;;;;;;;;2053108;28;20137;-61
2023/04/22 05:30:56;;;;;;;8.18;2.50;;;;;;;;;;2050947;28;20134;-61
2023/04/22 05:32:15;;;;;;;2.47;2.25;;;;;;;;;;2052979;28;20118;-61
2023/04/22 05:33:34;;;;;;;8.45;2.75;;;;;;;;;;2052263;28;20031;-62
2023/04/22 05:34:53;;;;;;;2.38;2.17;;;;;;;;;;2051514;28;20118;-62
2023/04/22 05:36:11;;;;;;;2.45;2.22;;;;;;;;;;2050155;28;20504;-61
2023/04/22 05:37:30;;;;;;;4.28;2.20;;;;;;;;;;2057093;28;20039;-62
2023/04/22 05:38:49;;;;;;;4.65;2.20;;;;;;;;;;2051856;28;20113;-63
2023/04/22 05:40:08;;;;;;;4.25;2.65;;;;;;;;;;2049060;28;20051;-62
2023/04/22 05:41:27;;;;;;;2.17;1.83;;;;;;;;;;2051974;28;20043;-65
2023/04/22 05:42:46;;;;;;;2.78;2.45;;;;;;;;;;2049516;28;20034;-61
2023/04/22 05:44:05;;;;;;;5.97;2.28;;;;;;;;;;2051392;28;20082;-63
2023/04/22 05:45:24;;;;;;;2.92;2.42;;;;;;;;;;2048303;28;20043;-62
2023/04/22 05:46:43;;;;;;;2.53;2.05;;;;;;;;;;2053943;28;20047;-62
2023/04/22 05:48:03;;;;;;;3.38;2.20;;;;;;;;;;2050074;28;20034;-62
2023/04/22 05:49:22;;;;;;;5.65;2.47;;;;;;;;;;2048777;28;20039;-62
2023/04/22 05:50:41;;;;;;;2.60;2.40;;;;;;;;;;2052157;28;20496;-61
2023/04/22 05:52:00;;;;;;;3.92;2.53;;;;;;;;;;2050518;28;20035;-60
2023/04/22 05:53:19;;;;;;;4.32;2.30;;;;;;;;;;2047855;28;20038;-61
2023/04/22 05:54:38;;;;;;;2.38;1.85;;;;;;;;;;2046786;28;20034;-60
2023/04/22 05:55:57;;;;;;;3.85;2.20;;;;;;;;;;2048624;28;20071;-61
2023/04/22 05:57:16;;;;;;;5.57;2.42;;;;;;;;;;2048843;28;20043;-60
2023/04/22 05:58:36;;;;;;;2.42;2.08;;;;;;;;;;2051262;28;21714;-61
2023/04/22 05:59:55;;;;;;;4.70;1.95;;;;;;;;;;2046453;28;20035;-60
2023/04/22 06:01:14;;;;;;;4.35;2.20;;;;;;;;;;2046376;28;21205;-61
2023/04/22 06:02:33;;;;;;;2.60;1.85;;;;;;;;;;2048412;28;20069;-61
2023/04/22 06:03:52;;;;;;;3.72;2.45;;;;;;;;;;2042451;28;20571;-62
2023/04/22 06:05:10;;;;;;;4.65;2.17;;;;;;;;;;2047034;28;20113;-60
2023/04/22 06:06:30;;;;;;;4.80;2.30;;;;;;;;;;2052445;28;20161;-61
2023/04/22 06:07:49;;;;;;;3.00;2.28;;;;;;;;;;2051759;28;20064;-62
2023/04/22 06:09:08;;;;;;;7.00;2.20;;;;;;;;;;2048878;28;20067;-61
2023/04/22 06:10:27;;;;;;;6.47;2.00;;;;;;;;;;2047556;28;20190;-61
2023/04/22 06:11:46;;;;;;;8.20;2.38;;;;;;;;;;2049202;28;20027;-61
2023/04/22 06:13:06;;;;;;;5.13;2.90;;;;;;;;;;2046780;28;20602;-61
2023/04/22 06:14:24;;;;;;;13.95;2.92;;;;;;;;;;2051088;28;20404;-62
2023/04/22 06:15:43;;;;;;;3.42;2.20;;;;;;;;;;2047279;28;20047;-61
2023/04/22 06:17:02;;;;;;;3.88;1.85;;;;;;;;;;2047951;28;20038;-61
2023/04/22 06:18:21;;;;;;;3.25;2.33;;;;;;;;;;2048891;28;20109;-61
2023/04/22 06:19:40;;;;;;;8.35;2.60;;;;;;;;;;2047777;28;20038;-61
2023/04/22 06:20:59;;;;;;;5.72;2.25;;;;;;;;;;2050882;28;20463;-61
2023/04/22 06:22:18;;;;;;;4.95;2.13;;;;;;;;;;2048167;28;20121;-61
2023/04/22 06:23:37;;;;;;;7.43;2.30;;;;;;;;;;2049340;28;20556;-61
2023/04/22 06:24:56;;;;;;;3.38;2.17;;;;;;;;;;2048596;28;20051;-62
2023/04/22 06:26:15;;;;;;;5.00;2.10;;;;;;;;;;2049649;28;20392;-62
2023/04/22 06:27:35;;;;;;;7.60;2.55;;;;;;;;;;2049535;28;20038;-61
2023/04/22 06:28:53;;;;;;;5.30;2.13;;;;;;;;;;2050896;28;20141;-60
2023/04/22 06:30:12;;;;;;;7.53;2.92;;;;;;;;;;2049564;28;20090;-61
2023/04/22 06:31:31;;;;;;;20.42;3.08;;;;;;;;;;2049677;28;20047;-62
2023/04/22 06:32:54;;;;;;;14.18;2.97;;;;;;;;;;2052706;28;20071;-62
2023/04/22 06:34:14;;;;;;;9.32;2.72;;;;;;;;;;2048402;28;20018;-61
2023/04/22 06:35:33;;;;;;;9.35;2.58;;;;;;;;;;2051163;28;20496;-62
2023/04/22 06:36:53;;;;;;;9.10;2.40;;;;;;;;;;2051409;28;20492;-63
2023/04/22 06:38:12;;;;;;;6.30;2.53;;;;;;;;;;2051033;28;20755;-61
2023/04/22 06:39:31;;;;;;;4.60;2.28;;;;;;;;;;2047732;28;20043;-62
2023/04/22 06:40:50;;;;;;;4.20;2.30;;;;;;;;;;2045423;28;20043;-62
2023/04/22 06:42:09;;;;;;;6.13;2.28;;;;;;;;;;2040677;28;20038;-61
2023/04/22 06:43:28;;;;;;;5.88;2.30;;;;;;;;;;2048266;28;20054;-62
2023/04/22 06:44:47;;;;;;;5.07;1.98;;;;;;;;;;2050735;28;20031;-62
2023/04/22 06:46:06;;;;;;;5.15;1.70;;;;;;;;;;2050768;28;20038;-61
2023/04/22 06:47:25;;;;;;;6.78;2.00;;;;;;;;;;2050470;28;20042;-61
2023/04/22 06:48:45;;;;;;;10.32;2.55;;;;;;;;;;2049756;28;20038;-62
2023/04/22 06:50:04;;;;;;;4.28;2.08;;;;;;;;;;2042093;28;20043;-63
2023/04/22 06:51:23;;;;;;;5.82;2.17;;;;;;;;;;2043952;28;20042;-62
2023/04/22 06:52:42;;;;;;;3.00;1.80;;;;;;;;;;2045178;28;20043;-62
2023/04/22 06:54:01;;;;;;;5.72;2.28;;;;;;;;;;2048414;28;20034;-61
2023/04/22 06:55:20;;;;;;;3.65;1.80;;;;;;;;;;2049543;28;20035;-61
2023/04/22 06:56:39;;;;;;;3.08;1.90;;;;;;;;;;2052140;28;20062;-61
2023/04/22 06:57:58;;;;;;;2.38;1.60;;;;;;;;;;2051310;28;20142;-61
2023/04/22 06:59:17;;;;;;;3.13;1.77;;;;;;;;;;2052264;28;20476;-61
2023/04/22 07:00:36;;;;;;;4.85;1.70;;;;;;;;;;2050906;28;20038;-61
2023/04/22 07:01:55;;;;;;;3.90;1.90;;;;;;;;;;2053670;28;20036;-61
2023/04/22 07:03:14;;;;;;;6.75;1.88;;;;;;;;;;2054325;28;20436;-62
2023/04/22 07:04:33;;;;;;;2.65;1.90;;;;;;;;;;2054344;28;20331;-62
2023/04/22 07:05:52;;;;;;;2.20;1.50;;;;;;;;;;2050049;28;20556;-61
2023/04/22 07:07:11;;;;;;;4.25;1.73;;;;;;;;;;2053243;28;20039;-62
2023/04/22 07:08:30;;;;;;;6.00;1.55;;;;;;;;;;2049234;28;20035;-61
2023/04/22 07:09:49;;;;;;;3.95;1.73;;;;;;;;;;2052421;28;20026;-62
2023/04/22 07:11:09;;;;;;;3.25;1.80;;;;;;;;;;2051143;28;20030;-61
2023/04/22 07:12:28;;;;;;;7.28;2.25;;;;;;;;;;2054492;28;20042;-64
2023/04/22 07:13:47;;;;;;;4.68;1.80;;;;;;;;;;2051609;28;20035;-61
2023/04/22 07:15:06;;;;;;;3.55;1.77;;;;;;;;;;2052696;28;20023;-62
2023/04/22 07:16:27;;;;;;;4.70;2.00;;;;;;;;;;2051299;28;20110;-61
2023/04/22 07:17:46;;;;;;;4.40;1.50;;;;;;;;;;2051570;28;20019;-62
2023/04/22 07:19:05;;;;;;;4.53;1.77;;;;;;;;;;2049389;28;20047;-62
2023/04/22 07:20:24;;;;;;;3.88;1.60;;;;;;;;;;2048571;28;20031;-62
2023/04/22 07:21:42;;;;;;;6.90;1.50;;;;;;;;;;2047751;28;20043;-61
2023/04/22 07:23:01;;;;;;;2.33;1.40;;;;;;;;;;2052046;28;20031;-62
2023/04/22 07:24:21;;;;;;;11.52;1.60;;;;;;;;;;2047536;28;20502;-61
2023/04/22 07:25:40;;;;;;;3.03;1.30;;;;;;;;;;2048933;28;20050;-62
2023/04/22 07:27:00;;;;;;;5.07;1.83;;;;;;;;;;2047338;28;20030;-62
2023/04/22 07:28:19;;;;;;;10.57;2.45;;;;;;;;;;2046118;28;20035;-62
2023/04/22 07:29:38;;;;;;;5.78;1.50;;;;;;;;;;2046487;28;20078;-63
2023/04/22 07:30:57;;;;;;;6.95;1.50;;;;;;;;;;2043647;28;20039;-61
2023/04/22 07:32:16;;;;;;;5.50;1.77;;;;;;;;;;2047823;28;20035;-61
2023/04/22 07:33:35;;;;;;;8.30;1.90;;;;;;;;;;2046454;28;20051;-61
2023/04/22 07:34:54;;;;;;;1.55;1.45;;;;;;;;;;2052822;28;20035;-60
2023/04/22 07:36:13;;;;;;;2.65;1.70;;;;;;;;;;2049130;28;20260;-61
2023/04/22 07:37:32;;;;;;;3.22;1.40;;;;;;;;;;2048733;28;20039;-60
2023/04/22 07:38:51;;;;;;;4.60;1.40;;;;;;;;;;2043024;28;20046;-61
2023/04/22 07:40:12;;;;;;;3.13;1.23;;;;;;;;;;2051657;28;20031;-61
2023/04/22 07:41:32;;;;;;;1.83;1.30;;;;;;;;;;2046190;28;20595;-61
2023/04/22 07:42:51;;;;;;;9.55;1.73;;;;;;;;;;2050220;28;20039;-61
2023/04/22 07:44:15;;;;;;;8.95;2.00;;;;;;;;;;2050015;28;20042;-61
2023/04/22 07:45:34;;;;;;;8.75;1.33;;;;;;;;;;2051031;28;20511;-61
2023/04/22 07:46:53;;;;;;;3.03;1.83;;;;;;;;;;2051634;28;20039;-62
2023/04/22 07:48:12;;;;;;;6.28;1.65;;;;;;;;;;2049005;28;20487;-61
2023/04/22 07:49:31;;;;;;;11.48;2.25;;;;;;;;;;2049847;28;20677;-61
2023/04/22 07:50:50;;;;;;;3.42;1.90;;;;;;;;;;2049714;28;20035;-61
2023/04/22 07:52:08;;;;;;;5.20;1.95;;;;;;;;;;2049538;28;20027;-62
2023/04/22 07:53:27;;;;;;;9.05;1.50;;;;;;;;;;2047258;28;20500;-62
2023/04/22 07:54:46;;;;;;;5.78;1.30;;;;;;;;;;2049819;28;20047;-61